createdAt,value
2018-12-26T00:05:00.869Z,17.87
2018-12-26T00:10:05.341Z,18.90
2018-12-26T00:15:09.744Z,19.00
2018-12-26T00:20:14.155Z,13.97
2018-12-26T00:25:18.789Z,15.10
2018-12-26T00:30:23.041Z,14.30
2018-12-26T00:35:27.716Z,21.13
2018-12-26T00:40:51.046Z,17.07
2018-12-26T00:45:55.311Z,22.57
2018-12-26T00:50:59.555Z,19.60
2018-12-26T00:56:10.472Z,19.13
2018-12-26T01:01:29.155Z,21.00
2018-12-26T01:06:33.510Z,25.93
2018-12-26T01:11:37.842Z,18.57
2018-12-26T01:16:42.096Z,17.73
2018-12-26T01:21:46.372Z,15.60
2018-12-26T01:26:50.706Z,12.07
2018-12-26T01:31:55.081Z,12.73
2018-12-26T01:36:59.326Z,15.07
2018-12-26T01:42:03.813Z,13.97
2018-12-26T01:47:08.079Z,16.17
2018-12-26T01:52:12.352Z,16.70
2018-12-26T01:57:16.803Z,14.47
2018-12-26T02:02:21.142Z,17.03
2018-12-26T02:07:25.501Z,15.20
2018-12-26T02:12:29.771Z,12.93
2018-12-26T02:17:34.135Z,21.60
2018-12-26T02:22:38.499Z,24.20
2018-12-26T02:27:42.801Z,30.93
2018-12-26T02:32:47.351Z,34.63
2018-12-26T02:37:51.700Z,31.70
2018-12-26T02:42:56.069Z,39.00
2018-12-26T02:48:00.324Z,27.47
2018-12-26T02:53:04.642Z,22.50
2018-12-26T02:58:22.124Z,19.93
2018-12-26T03:03:26.425Z,19.03
2018-12-26T03:08:30.675Z,17.43
2018-12-26T03:13:35.062Z,17.30
2018-12-26T03:18:39.316Z,15.43
2018-12-26T03:23:43.571Z,16.53
2018-12-26T03:28:47.863Z,13.83
2018-12-26T03:34:11.546Z,11.70
2018-12-26T03:39:15.802Z,12.73
2018-12-26T03:44:40.401Z,13.40
2018-12-26T03:49:44.924Z,13.53
2018-12-26T03:54:49.294Z,19.50
2018-12-26T04:00:06.541Z,11.10
2018-12-26T04:05:10.783Z,12.40
2018-12-26T04:10:34.119Z,12.77
2018-12-26T04:15:38.518Z,12.30
2018-12-26T04:20:42.779Z,13.03
2018-12-26T04:25:47.071Z,10.20
2018-12-26T04:30:51.603Z,14.73
2018-12-26T04:35:55.964Z,13.93
2018-12-26T04:41:00.392Z,14.37
2018-12-26T04:46:23.747Z,14.00
2018-12-26T04:51:47.166Z,12.03
2018-12-26T04:57:10.673Z,15.30
2018-12-26T05:02:15.257Z,13.60
2018-12-26T05:07:19.978Z,14.97
2018-12-26T05:12:43.570Z,14.30
2018-12-26T05:17:47.890Z,11.20
2018-12-26T05:22:52.302Z,12.03
2018-12-26T05:27:56.667Z,10.97
2018-12-26T05:33:01.183Z,10.97
2018-12-26T05:38:24.610Z,12.77
2018-12-26T05:43:48.229Z,10.47
2018-12-26T05:48:52.502Z,10.00
2018-12-26T05:53:59.184Z,13.13
2018-12-26T05:59:22.543Z,11.07
2018-12-26T06:04:26.834Z,12.77
2018-12-26T06:09:31.098Z,14.23
2018-12-26T06:14:35.387Z,16.33
2018-12-26T06:19:39.767Z,12.90
2018-12-26T06:24:44.000Z,11.87
2018-12-26T06:29:48.258Z,15.33
2018-12-26T06:34:52.682Z,14.60
2018-12-26T06:40:16.100Z,15.83
2018-12-26T06:45:39.424Z,13.33
2018-12-26T06:50:43.677Z,11.73
2018-12-26T06:56:07.367Z,10.20
2018-12-26T07:01:11.644Z,14.07
2018-12-26T07:06:28.531Z,13.93
2018-12-26T07:11:32.967Z,15.43
2018-12-26T07:16:37.332Z,15.43
2018-12-26T07:21:41.762Z,21.67
2018-12-26T07:26:46.020Z,26.83
2018-12-26T07:32:09.370Z,16.57
2018-12-26T07:37:13.891Z,14.10
2018-12-26T07:42:18.352Z,15.63
2018-12-26T07:47:41.686Z,27.13
2018-12-26T07:52:46.165Z,22.17
2018-12-26T07:57:50.713Z,28.13
2018-12-26T08:03:14.076Z,16.87
2018-12-26T08:08:18.523Z,21.93
2018-12-26T08:13:23.097Z,23.27
2018-12-26T08:18:27.386Z,20.17
2018-12-26T08:23:31.721Z,21.03
2018-12-26T08:28:36.039Z,18.23
2018-12-26T08:33:40.445Z,16.10
2018-12-26T08:38:44.707Z,13.33
2018-12-26T08:43:49.066Z,16.93
2018-12-26T08:48:53.352Z,18.57
2018-12-26T08:53:57.696Z,13.70
2018-12-26T08:59:21.071Z,18.80
2018-12-26T09:04:25.464Z,11.50
2018-12-26T09:09:29.899Z,13.70
2018-12-26T09:14:34.240Z,26.27
2018-12-26T09:19:57.578Z,14.30
2018-12-26T09:25:01.876Z,18.13
2018-12-26T09:30:06.944Z,16.90
2018-12-26T09:35:30.532Z,21.90
2018-12-26T09:40:54.170Z,16.83
2018-12-26T09:46:17.600Z,25.40
2018-12-26T09:51:22.109Z,15.30
2018-12-26T09:56:26.536Z,19.37
2018-12-26T10:01:31.046Z,32.23
2018-12-26T10:06:35.759Z,17.10
2018-12-26T10:11:40.277Z,15.50
2018-12-26T10:17:03.695Z,17.13
2018-12-26T10:22:08.003Z,14.53
2018-12-26T10:27:12.457Z,19.27
2018-12-26T10:32:17.750Z,24.53
2018-12-26T10:37:22.317Z,39.00
2018-12-26T10:42:26.675Z,38.17
2018-12-26T10:47:31.341Z,15.20
2018-12-26T10:52:54.654Z,42.90
2018-12-26T10:57:59.032Z,21.90
2018-12-26T11:03:03.467Z,46.90
2018-12-26T11:08:07.917Z,20.53
2018-12-26T11:13:12.488Z,18.57
2018-12-26T11:18:16.921Z,18.67
2018-12-26T11:23:40.242Z,18.20
2018-12-26T11:29:03.568Z,15.90
2018-12-26T11:34:07.839Z,16.33
2018-12-26T11:39:31.345Z,17.67
2018-12-26T11:44:35.840Z,23.70
2018-12-26T11:49:40.936Z,21.67
2018-12-26T11:55:04.326Z,17.33
2018-12-26T12:00:08.690Z,16.43
2018-12-26T12:05:13.180Z,16.03
2018-12-26T12:10:17.618Z,15.50
2018-12-26T12:15:22.052Z,16.37
2018-12-26T12:20:26.482Z,15.80
2018-12-26T12:25:32.023Z,13.83
2018-12-26T12:30:55.357Z,10.73
2018-12-26T12:35:59.819Z,10.53
2018-12-26T12:41:04.181Z,16.87
2018-12-26T12:46:27.491Z,13.60
2018-12-26T12:51:50.822Z,10.13
2018-12-26T12:56:55.239Z,11.10
2018-12-26T13:01:59.722Z,11.53
2018-12-26T13:07:04.191Z,10.87
2018-12-26T13:12:10.979Z,8.70
2018-12-26T13:17:15.442Z,17.70
2018-12-26T13:22:19.917Z,10.13
2018-12-26T13:27:43.242Z,14.17
2018-12-26T13:32:47.689Z,15.17
2018-12-26T13:38:11.200Z,11.87
2018-12-26T13:43:34.609Z,12.60
2018-12-26T13:48:58.294Z,10.50
2018-12-26T13:54:03.013Z,11.77
2018-12-26T13:59:07.276Z,9.60
2018-12-26T14:04:11.541Z,15.17
2018-12-26T14:09:34.873Z,10.47
2018-12-26T14:14:58.181Z,13.63
2018-12-26T14:20:02.473Z,11.10
2018-12-26T14:25:07.542Z,22.60
2018-12-26T14:30:30.868Z,9.90
2018-12-26T14:35:35.214Z,7.70
2018-12-26T14:40:39.726Z,9.80
2018-12-26T14:46:03.150Z,9.47
2018-12-26T14:51:07.583Z,6.67
2018-12-26T14:56:31.189Z,8.57
2018-12-26T15:01:35.744Z,6.63
2018-12-26T15:06:59.073Z,6.77
2018-12-26T15:12:03.343Z,7.87
2018-12-26T15:17:07.773Z,6.90
2018-12-26T15:22:26.465Z,5.93
2018-12-26T15:27:30.865Z,8.03
2018-12-26T15:32:35.135Z,8.50
2018-12-26T15:37:39.646Z,8.17
2018-12-26T15:43:02.957Z,8.43
2018-12-26T15:53:19.195Z,8.20
2018-12-26T15:58:42.785Z,8.23
2018-12-26T16:04:06.114Z,10.50
2018-12-26T16:09:10.354Z,10.33
2018-12-26T16:14:14.666Z,13.23
2018-12-26T16:19:38.319Z,9.77
2018-12-26T16:24:55.610Z,11.47
2018-12-26T16:29:59.926Z,8.77
2018-12-26T16:35:24.731Z,9.17
2018-12-26T16:40:48.068Z,9.30
2018-12-26T16:45:52.317Z,10.20
2018-12-26T16:50:56.693Z,10.70
2018-12-26T16:56:01.096Z,10.77
2018-12-26T17:01:05.493Z,15.00
2018-12-26T17:06:09.966Z,12.17
2018-12-26T17:11:14.363Z,12.40
2018-12-26T17:16:18.777Z,13.23
2018-12-26T17:21:23.211Z,14.20
2018-12-26T17:26:27.706Z,11.97
2018-12-26T17:31:32.089Z,14.50
2018-12-26T17:36:36.592Z,14.40
2018-12-26T17:41:40.989Z,16.00
2018-12-26T17:46:46.217Z,15.20
2018-12-26T17:52:09.543Z,13.10
2018-12-26T17:57:18.396Z,12.33
2018-12-26T18:02:43.169Z,13.53
2018-12-26T18:08:07.260Z,10.87
2018-12-26T18:18:22.384Z,17.07
2018-12-26T18:23:26.762Z,19.30
2018-12-26T18:28:31.294Z,26.47
2018-12-26T18:33:35.621Z,25.00
2018-12-26T18:38:39.870Z,24.67
2018-12-26T18:43:44.194Z,25.20
2018-12-26T18:48:48.639Z,29.80
2018-12-26T18:54:12.035Z,28.13
2018-12-26T18:59:16.378Z,26.13
2018-12-26T19:04:39.719Z,28.53
2018-12-26T19:09:44.400Z,26.03
2018-12-26T19:15:08.266Z,25.53
2018-12-26T19:20:12.734Z,21.73
2018-12-26T19:25:17.108Z,16.87
2018-12-26T19:30:21.393Z,18.47
2018-12-26T19:35:25.667Z,19.73
2018-12-26T19:40:30.113Z,28.50
2018-12-26T19:45:34.544Z,32.43
2018-12-26T19:50:38.803Z,26.87
2018-12-26T19:55:43.163Z,28.20
2018-12-26T20:00:47.512Z,30.60
2018-12-26T20:05:54.375Z,28.87
2018-12-26T20:11:00.089Z,27.30
2018-12-26T20:16:04.362Z,25.93
2018-12-26T20:21:27.679Z,34.90
2018-12-26T20:26:32.469Z,30.00
2018-12-26T20:31:37.481Z,30.00
2018-12-26T20:36:41.928Z,33.20
2018-12-26T20:41:47.134Z,30.80
2018-12-26T20:46:51.818Z,25.77
2018-12-26T20:52:16.053Z,51.17
2018-12-26T20:57:39.510Z,30.23
2018-12-26T21:02:44.395Z,33.57
2018-12-26T21:07:49.792Z,33.13
2018-12-26T21:12:54.197Z,31.53
2018-12-26T21:18:17.546Z,35.17
2018-12-26T21:23:40.969Z,28.27
2018-12-26T21:29:04.994Z,26.43
2018-12-26T21:34:23.685Z,31.73
2018-12-26T21:39:42.312Z,28.30
2018-12-26T21:44:46.763Z,27.00
2018-12-26T21:49:52.100Z,24.50
2018-12-26T21:54:56.630Z,20.47
2018-12-26T22:00:01.143Z,24.53
2018-12-26T22:05:24.787Z,28.23
2018-12-26T22:10:31.006Z,32.70
2018-12-26T22:15:35.786Z,25.50
2018-12-26T22:20:40.612Z,27.07
2018-12-26T22:25:45.330Z,28.53
2018-12-26T22:31:08.672Z,26.67
2018-12-26T22:36:16.078Z,30.20
2018-12-26T22:41:20.516Z,33.43
2018-12-26T22:46:24.794Z,33.10
2018-12-26T22:51:29.204Z,34.73
2018-12-26T22:56:33.625Z,29.90
2018-12-26T23:01:38.068Z,27.60
2018-12-26T23:07:01.668Z,25.80
2018-12-26T23:12:05.998Z,23.53
2018-12-26T23:17:10.408Z,22.43
2018-12-26T23:22:15.269Z,23.10
2018-12-26T23:27:38.613Z,25.33
2018-12-26T23:32:47.007Z,28.27
2018-12-26T23:37:50.013Z,25.20
2018-12-26T23:42:54.385Z,21.33
2018-12-26T23:48:01.315Z,21.73
2018-12-26T23:53:05.836Z,22.97
2018-12-26T23:58:11.583Z,26.60
